createdAt,value
2022-09-10T00:01:40.959Z,99406.97
2022-09-10T00:04:15.131Z,99416.56
2022-09-10T00:06:45.163Z,99413.97
2022-09-10T00:09:15.044Z,99418.34
2022-09-10T00:11:45.897Z,99411.28
2022-09-10T00:14:19.281Z,99421.78
2022-09-10T00:16:47.870Z,99424.41
2022-09-10T00:19:19.659Z,99412.19
2022-09-10T00:21:50.104Z,99416.53
2022-09-10T00:24:18.692Z,99414.78
2022-09-10T00:26:47.186Z,99414.81
2022-09-10T00:29:18.423Z,99416.56
2022-09-10T00:31:47.297Z,99424.44
2022-09-10T00:34:17.580Z,99426.19
2022-09-10T00:36:46.762Z,99417.44
2022-09-10T00:39:18.034Z,99423.56
2022-09-10T00:41:49.276Z,99414.84
2022-09-10T00:45:00.036Z,99421.78
2022-09-10T00:47:34.254Z,99423.53
2022-09-10T00:50:14.757Z,99415.66
2022-09-10T00:52:44.307Z,99412.19
2022-09-10T00:55:14.077Z,99411.28
2022-09-10T00:57:43.616Z,99404.25
2022-09-10T01:00:15.970Z,99412.13
2022-09-10T01:02:44.881Z,99415.66
2022-09-10T01:05:17.376Z,99406.91
2022-09-10T01:07:45.994Z,99407.75
2022-09-10T01:10:19.065Z,99412.13
2022-09-10T01:13:16.261Z,99404.22
2022-09-10T01:15:53.839Z,99411.25
2022-09-10T01:18:33.285Z,99416.44
2022-09-10T01:21:19.355Z,99414.66
2022-09-10T01:24:43.181Z,99417.25
2022-09-10T01:27:38.928Z,99421.59
2022-09-10T01:30:14.561Z,99423.38
2022-09-10T01:33:12.214Z,99417.22
2022-09-10T01:35:47.884Z,99425.97
2022-09-10T01:38:34.232Z,99422.47
2022-09-10T01:41:03.616Z,99433.84
2022-09-10T01:43:38.770Z,99431.22
2022-09-10T01:46:26.360Z,99428.66
2022-09-10T01:49:14.225Z,99424.28
2022-09-10T01:52:08.265Z,99412.94
2022-09-10T01:54:51.464Z,99415.56
2022-09-10T01:57:31.314Z,99416.44
2022-09-10T02:00:09.087Z,99419.03
2022-09-10T02:02:48.499Z,99421.63
2022-09-10T02:05:21.057Z,99416.41
2022-09-10T02:08:00.183Z,99406.78
2022-09-10T02:10:28.971Z,99419.88
2022-09-10T02:12:57.963Z,99419.84
2022-09-10T02:15:49.219Z,99416.34
2022-09-10T02:18:24.805Z,99429.47
2022-09-10T02:20:56.692Z,99428.56
2022-09-10T02:23:32.498Z,99427.66
2022-09-10T02:26:00.942Z,99427.66
2022-09-10T02:28:30.642Z,99421.50
2022-09-10T02:31:00.832Z,99421.50
2022-09-10T02:33:31.053Z,99435.47
2022-09-10T02:36:00.727Z,99431.97
2022-09-10T02:38:30.725Z,99425.84
2022-09-10T02:40:59.401Z,99426.75
2022-09-10T02:43:28.312Z,99436.34
2022-09-10T02:46:02.531Z,99427.59
2022-09-10T02:48:31.291Z,99431.97
2022-09-10T02:51:00.859Z,99423.25
2022-09-10T02:53:31.710Z,99434.63
2022-09-10T02:56:04.870Z,99427.59
2022-09-10T02:58:34.169Z,99425.00
2022-09-10T03:01:11.434Z,99425.03
2022-09-10T03:03:40.672Z,99427.66
2022-09-10T03:06:09.995Z,99424.16
2022-09-10T03:08:39.325Z,99418.06
2022-09-10T03:11:08.195Z,99417.19
2022-09-10T03:13:37.678Z,99426.78
2022-09-10T03:16:06.898Z,99417.19
2022-09-10T03:18:37.062Z,99412.84
2022-09-10T03:21:14.856Z,99414.56
2022-09-10T03:23:44.914Z,99420.69
2022-09-10T03:26:15.847Z,99416.31
2022-09-10T03:28:46.078Z,99415.47
2022-09-10T03:31:18.170Z,99410.19
2022-09-10T03:33:51.096Z,99414.56
2022-09-10T03:36:21.629Z,99421.53
2022-09-10T03:38:51.357Z,99421.53
2022-09-10T03:41:19.798Z,99414.56
2022-09-10T03:43:50.035Z,99424.16
2022-09-10T03:46:18.621Z,99412.78
2022-09-10T03:48:55.090Z,99419.78
2022-09-10T03:51:27.483Z,99423.28
2022-09-10T03:53:57.096Z,99415.41
2022-09-10T03:56:25.931Z,99418.03
2022-09-10T03:58:54.473Z,99422.38
2022-09-10T04:01:24.764Z,99423.28
2022-09-10T04:03:57.033Z,99416.28
2022-09-10T04:06:28.158Z,99420.66
2022-09-10T04:08:57.493Z,99419.75
2022-09-10T04:11:27.281Z,99425.88
2022-09-10T04:13:57.099Z,99424.13
2022-09-10T04:16:27.427Z,99428.47
2022-09-10T04:18:57.641Z,99418.84
2022-09-10T04:21:27.489Z,99424.09
2022-09-10T04:23:59.253Z,99425.84
2022-09-10T04:26:28.327Z,99421.47
2022-09-10T04:28:57.264Z,99415.34
2022-09-10T04:31:25.895Z,99422.34
2022-09-10T04:34:02.135Z,99415.34
2022-09-10T04:36:32.483Z,99414.44
2022-09-10T04:39:01.275Z,99412.69
2022-09-10T04:41:30.848Z,99425.78
2022-09-10T04:44:00.239Z,99417.06
2022-09-10T04:46:28.895Z,99437.13
2022-09-10T04:49:01.338Z,99428.41
2022-09-10T04:51:30.302Z,99429.28
2022-09-10T04:53:59.401Z,99438.88
2022-09-10T04:56:32.890Z,99438.88
2022-09-10T04:59:01.890Z,99438.00
2022-09-10T05:01:35.233Z,99438.84
2022-09-10T05:04:05.934Z,99438.84
2022-09-10T05:06:37.721Z,99440.59
2022-09-10T05:09:08.467Z,99449.34
2022-09-10T05:11:37.352Z,99443.22
2022-09-10T05:14:07.549Z,99444.13
2022-09-10T05:16:37.336Z,99440.63
2022-09-10T05:19:07.699Z,99436.25
2022-09-10T05:21:44.231Z,99435.41
2022-09-10T05:24:13.399Z,99442.34
2022-09-10T05:26:45.034Z,99439.75
2022-09-10T05:29:14.051Z,99438.88
2022-09-10T05:31:44.520Z,99446.72
2022-09-10T05:34:14.567Z,99444.97
2022-09-10T05:36:44.037Z,99450.22
2022-09-10T05:39:15.634Z,99447.59
2022-09-10T05:41:44.995Z,99446.72
2022-09-10T05:44:15.179Z,99447.59
2022-09-10T05:46:44.739Z,99461.53
2022-09-10T05:49:17.274Z,99464.16
2022-09-10T05:51:46.613Z,99468.47
2022-09-10T05:54:16.199Z,99464.97
2022-09-10T05:56:45.452Z,99472.81
2022-09-10T05:59:15.061Z,99474.53
2022-09-10T06:01:51.451Z,99468.41
2022-09-10T06:04:24.262Z,99475.38
2022-09-10T06:06:53.254Z,99471.84
2022-09-10T06:09:22.285Z,99476.19
2022-09-10T06:12:07.429Z,99469.22
2022-09-10T06:14:37.651Z,99473.56
2022-09-10T06:17:06.473Z,99474.47
2022-09-10T06:19:36.332Z,99474.47
2022-09-10T06:22:05.793Z,99483.19
2022-09-10T06:24:40.185Z,99480.59
2022-09-10T06:27:09.714Z,99483.25
2022-09-10T06:29:38.423Z,99485.84
2022-09-10T06:32:09.635Z,99485.00
2022-09-10T06:34:39.914Z,99479.78
2022-09-10T06:37:09.566Z,99487.66
2022-09-10T06:39:39.864Z,99492.94
2022-09-10T06:42:09.256Z,99489.44
2022-09-10T06:44:57.540Z,99492.97
2022-09-10T06:48:37.033Z,99488.59
2022-09-10T06:50:56.615Z,99493.84
2022-09-10T06:53:33.520Z,99498.19
2022-09-10T06:56:05.610Z,99491.25
2022-09-10T06:58:36.509Z,99499.09
2022-09-10T07:01:13.183Z,99496.50
2022-09-10T07:03:44.033Z,99510.44
2022-09-10T07:06:19.616Z,99499.09
2022-09-10T07:08:56.851Z,99499.09
2022-09-10T07:11:28.107Z,99499.91
2022-09-10T07:14:01.477Z,99502.53
2022-09-10T07:16:32.952Z,99501.69
2022-09-10T07:19:02.326Z,99500.81
2022-09-10T07:21:40.777Z,99506.06
2022-09-10T07:24:14.502Z,99505.16
2022-09-10T07:27:18.316Z,99514.78
2022-09-10T07:29:48.018Z,99520.00
2022-09-10T07:32:20.566Z,99519.16
2022-09-10T07:34:52.635Z,99523.50
2022-09-10T07:37:25.491Z,99526.09
2022-09-10T07:39:54.211Z,99521.75
2022-09-10T07:42:23.224Z,99523.50
2022-09-10T07:44:53.231Z,99519.16
2022-09-10T07:47:22.090Z,99518.25
2022-09-10T07:49:52.620Z,99527.00
2022-09-10T07:52:21.112Z,99534.00
2022-09-10T07:54:56.132Z,99525.28
2022-09-10T07:57:25.185Z,99516.53
2022-09-10T07:59:55.010Z,99530.53
2022-09-10T08:02:25.826Z,99527.91
2022-09-10T08:05:00.060Z,99520.06
2022-09-10T08:07:28.808Z,99530.53
2022-09-10T08:09:58.729Z,99528.78
2022-09-10T08:12:27.440Z,99532.28
2022-09-10T08:14:57.845Z,99528.78
2022-09-10T08:17:29.715Z,99527.06
2022-09-10T08:19:58.948Z,99537.53
2022-09-10T08:22:28.127Z,99534.91
2022-09-10T08:25:00.148Z,99541.03
2022-09-10T08:27:34.451Z,99545.41
2022-09-10T08:30:07.110Z,99537.56
2022-09-10T08:32:36.822Z,99535.81
2022-09-10T08:35:07.299Z,99539.34
2022-09-10T08:37:35.861Z,99548.94
2022-09-10T08:40:08.180Z,99541.09
2022-09-10T08:42:43.097Z,99544.59
2022-09-10T08:45:17.730Z,99548.94
2022-09-10T08:47:55.705Z,99548.94
2022-09-10T08:50:37.327Z,99553.31
2022-09-10T08:53:25.857Z,99534.13
2022-09-10T08:56:03.269Z,99542.88
2022-09-10T08:58:42.539Z,99535.00
2022-09-10T09:01:16.907Z,99541.16
2022-09-10T09:03:48.981Z,99536.78
2022-09-10T09:06:31.390Z,99541.13
2022-09-10T09:09:01.522Z,99537.66
2022-09-10T09:11:47.738Z,99539.41
2022-09-10T09:14:54.140Z,99539.41
2022-09-10T09:17:42.837Z,99535.06
2022-09-10T09:20:19.340Z,99535.97
2022-09-10T09:22:55.301Z,99536.84
2022-09-10T09:25:49.129Z,99527.28
2022-09-10T09:28:31.729Z,99532.50
2022-09-10T09:31:09.450Z,99533.34
2022-09-10T09:33:40.296Z,99538.59
2022-09-10T09:36:18.842Z,99538.59
2022-09-10T09:38:50.916Z,99529.88
2022-09-10T09:41:28.947Z,99529.03
2022-09-10T09:44:04.245Z,99529.94
2022-09-10T09:46:34.777Z,99535.19
2022-09-10T09:49:07.199Z,99528.19
2022-09-10T09:51:37.884Z,99529.97
2022-09-10T09:54:46.494Z,99529.97
2022-09-10T09:57:02.919Z,99526.47
2022-09-10T09:59:35.683Z,99541.31
2022-09-10T10:02:12.416Z,99530.84
2022-09-10T10:04:55.251Z,99524.72
2022-09-10T10:07:31.554Z,99516.84
2022-09-10T10:10:02.378Z,99514.25
2022-09-10T10:12:32.964Z,99512.50
2022-09-10T10:15:03.856Z,99528.22
2022-09-10T10:17:39.437Z,99519.47
2022-09-10T10:20:14.860Z,99520.34
2022-09-10T10:22:45.359Z,99517.72
2022-09-10T10:25:38.457Z,99524.69
2022-09-10T10:28:16.866Z,99525.53
2022-09-10T10:30:54.445Z,99517.63
2022-09-10T10:33:30.515Z,99515.91
2022-09-10T10:36:08.942Z,99506.25
2022-09-10T10:38:40.843Z,99501.00
2022-09-10T10:41:52.082Z,99498.38
2022-09-10T10:44:44.153Z,99506.22
2022-09-10T10:47:33.215Z,99500.09
2022-09-10T10:50:19.809Z,99508.78
2022-09-10T10:53:04.915Z,99508.78
2022-09-10T10:55:41.683Z,99509.69
2022-09-10T10:58:33.489Z,99507.06
2022-09-10T11:01:08.796Z,99506.16
2022-09-10T11:03:44.861Z,99506.13
2022-09-10T11:06:28.937Z,99512.25
2022-09-10T11:09:03.003Z,99507.00
2022-09-10T11:11:40.442Z,99493.88
2022-09-10T11:14:27.009Z,99493.00
2022-09-10T11:16:59.718Z,99509.56
2022-09-10T11:19:36.953Z,99517.41
2022-09-10T11:22:14.826Z,99511.22
2022-09-10T11:24:51.196Z,99518.22
2022-09-10T11:27:26.426Z,99519.13
2022-09-10T11:30:03.749Z,99512.16
2022-09-10T11:32:38.317Z,99511.28
2022-09-10T11:35:20.162Z,99515.69
2022-09-10T11:38:04.669Z,99520.91
2022-09-10T11:40:40.242Z,99513.97
2022-09-10T11:43:13.778Z,99513.97
2022-09-10T11:45:49.301Z,99510.50
2022-09-10T11:48:24.621Z,99505.31
2022-09-10T11:51:01.640Z,99503.56
2022-09-10T11:53:31.034Z,99505.34
2022-09-10T11:56:47.593Z,99506.22
2022-09-10T11:59:37.397Z,99504.50
2022-09-10T12:02:33.760Z,99508.91
2022-09-10T12:05:10.855Z,99511.59
2022-09-10T12:07:51.571Z,99511.63
2022-09-10T12:10:32.292Z,99511.66
2022-09-10T12:13:01.065Z,99518.72
2022-09-10T12:15:34.357Z,99514.34
2022-09-10T12:18:10.339Z,99518.75
2022-09-10T12:20:44.796Z,99500.41
2022-09-10T12:23:21.034Z,99502.19
2022-09-10T12:25:59.768Z,99513.56
2022-09-10T12:28:59.781Z,99510.06
2022-09-10T12:31:28.959Z,99502.19
2022-09-10T12:34:19.585Z,99509.22
2022-09-10T12:37:27.932Z,99517.06
2022-09-10T12:40:45.907Z,99504.81
2022-09-10T12:43:55.451Z,99517.03
2022-09-10T12:46:25.747Z,99514.41
2022-09-10T12:49:11.787Z,99514.41
2022-09-10T12:51:56.716Z,99502.16
2022-09-10T12:54:43.808Z,99513.53
2022-09-10T12:57:30.459Z,99510.03
2022-09-10T13:00:22.177Z,99517.00
2022-09-10T13:02:55.049Z,99514.41
2022-09-10T13:05:32.751Z,99519.63
2022-09-10T13:08:14.793Z,99517.88
2022-09-10T13:10:46.539Z,99512.63
2022-09-10T13:13:36.033Z,99515.25
2022-09-10T13:16:07.361Z,99512.63
2022-09-10T13:18:37.681Z,99514.41
2022-09-10T13:21:53.882Z,99517.03
2022-09-10T13:24:40.242Z,99513.50
2022-09-10T13:27:22.653Z,99505.63
2022-09-10T13:30:11.401Z,99511.78
2022-09-10T13:32:45.176Z,99499.53
2022-09-10T13:35:56.036Z,99507.41
2022-09-10T13:39:12.286Z,99509.13
2022-09-10T13:42:11.243Z,99512.63
2022-09-10T13:45:16.636Z,99531.84
2022-09-10T13:47:50.520Z,99517.03
2022-09-10T13:50:24.045Z,99517.00
2022-09-10T13:52:57.341Z,99517.88
2022-09-10T13:55:29.808Z,99503.91
2022-09-10T13:58:02.640Z,99502.16
2022-09-10T14:00:40.247Z,99499.53
2022-09-10T14:03:17.174Z,99500.41
2022-09-10T14:05:50.439Z,99495.19
2022-09-10T14:08:24.101Z,99497.78
2022-09-10T14:10:58.491Z,99512.66
2022-09-10T14:13:34.624Z,99512.66
2022-09-10T14:16:09.336Z,99506.53
2022-09-10T14:18:45.618Z,99505.63
2022-09-10T14:21:15.920Z,99500.41
2022-09-10T14:23:46.697Z,99501.31
2022-09-10T14:26:24.484Z,99503.06
2022-09-10T14:28:56.969Z,99496.94
2022-09-10T14:31:38.343Z,99492.56
2022-09-10T14:34:32.148Z,99489.97
2022-09-10T14:37:01.969Z,99481.19
2022-09-10T14:39:30.737Z,99475.94
2022-09-10T14:42:27.342Z,99477.69
2022-09-10T14:44:56.353Z,99483.78
2022-09-10T14:47:34.756Z,99493.44
2022-09-10T14:50:30.915Z,99494.28
2022-09-10T14:53:00.114Z,99496.03
2022-09-10T14:55:32.153Z,99496.06
2022-09-10T14:58:04.631Z,99487.31
2022-09-10T15:00:33.713Z,99499.53
2022-09-10T15:03:04.680Z,99493.41
2022-09-10T15:05:33.752Z,99499.56
2022-09-10T15:08:03.924Z,99499.56
2022-09-10T15:10:32.953Z,99505.69
2022-09-10T15:13:05.514Z,99497.84
2022-09-10T15:15:52.259Z,99512.66
2022-09-10T15:18:30.498Z,99512.66
2022-09-10T15:21:04.981Z,99517.03
2022-09-10T15:23:34.004Z,99516.13
2022-09-10T15:26:06.176Z,99520.50
2022-09-10T15:28:35.418Z,99524.00
2022-09-10T15:31:04.514Z,99517.88
2022-09-10T15:33:34.730Z,99524.88
2022-09-10T15:36:04.400Z,99530.09
2022-09-10T15:38:33.065Z,99527.50
2022-09-10T15:41:12.515Z,99522.25
2022-09-10T15:43:43.963Z,99528.38
2022-09-10T15:46:14.060Z,99530.13
2022-09-10T15:48:45.205Z,99521.41
2022-09-10T15:51:24.274Z,99535.41
2022-09-10T15:53:56.321Z,99537.13
2022-09-10T15:56:28.594Z,99533.63
2022-09-10T15:58:59.297Z,99526.59
2022-09-10T16:01:29.268Z,99535.38
2022-09-10T16:04:02.808Z,99535.38
2022-09-10T16:06:36.231Z,99537.97
2022-09-10T16:09:09.131Z,99541.47
2022-09-10T16:11:40.776Z,99538.00
2022-09-10T16:14:13.390Z,99544.13
2022-09-10T16:16:42.545Z,99548.53
2022-09-10T16:19:14.124Z,99552.88
2022-09-10T16:21:43.467Z,99553.75
2022-09-10T16:24:11.965Z,99559.81
2022-09-10T16:26:43.589Z,99561.56
2022-09-10T16:29:16.094Z,99563.28
2022-09-10T16:31:45.481Z,99560.69
2022-09-10T16:34:18.430Z,99562.41
2022-09-10T16:36:48.914Z,99565.06
2022-09-10T16:39:19.111Z,99568.59
2022-09-10T16:41:50.072Z,99567.69
2022-09-10T16:44:20.158Z,99570.34
2022-09-10T16:46:49.583Z,99578.19
2022-09-10T16:49:19.925Z,99572.94
2022-09-10T16:51:50.194Z,99576.44
2022-09-10T16:54:20.910Z,99579.94
2022-09-10T16:56:50.941Z,99584.25
2022-09-10T16:59:22.823Z,99585.16
2022-09-10T17:01:53.151Z,99591.28
2022-09-10T17:04:28.778Z,99590.44
2022-09-10T17:06:59.032Z,99603.53
2022-09-10T17:09:27.623Z,99594.78
2022-09-10T17:11:56.567Z,99603.56
2022-09-10T17:14:25.619Z,99603.56
2022-09-10T17:16:54.289Z,99614.91
2022-09-10T17:19:26.391Z,99610.53
2022-09-10T17:21:57.149Z,99620.13
2022-09-10T17:24:28.128Z,99615.81
2022-09-10T17:26:57.648Z,99618.41
2022-09-10T17:29:27.125Z,99628.03
2022-09-10T17:31:57.413Z,99631.50
2022-09-10T17:34:28.175Z,99626.25
2022-09-10T17:36:57.283Z,99635.84
2022-09-10T17:39:28.362Z,99644.56
2022-09-10T17:41:57.271Z,99641.03
2022-09-10T17:44:26.973Z,99642.69
2022-09-10T17:46:56.302Z,99643.53
2022-09-10T17:49:26.405Z,99653.09
2022-09-10T17:51:55.251Z,99660.91
2022-09-10T17:54:24.299Z,99660.03
2022-09-10T17:56:52.785Z,99666.13
2022-09-10T17:59:22.060Z,99671.38
2022-09-10T18:01:50.631Z,99676.59
2022-09-10T18:04:22.709Z,99679.16
2022-09-10T18:06:53.778Z,99680.03
2022-09-10T18:09:23.587Z,99690.50
2022-09-10T18:11:52.523Z,99682.66
2022-09-10T18:14:23.081Z,99699.25
2022-09-10T18:16:52.232Z,99700.94
2022-09-10T18:19:20.734Z,99701.81
2022-09-10T18:21:51.051Z,99709.69
2022-09-10T18:24:24.085Z,99720.16
2022-09-10T18:26:54.897Z,99726.25
2022-09-10T18:29:25.520Z,99729.69
2022-09-10T18:31:56.794Z,99732.31
2022-09-10T18:34:27.862Z,99736.66
2022-09-10T18:36:58.857Z,99740.16
2022-09-10T18:39:31.141Z,99733.13
2022-09-10T18:42:00.889Z,99747.97
2022-09-10T18:44:45.045Z,99754.94
2022-09-10T18:47:34.020Z,99758.38
2022-09-10T18:50:03.103Z,99760.16
2022-09-10T18:52:31.857Z,99763.63
2022-09-10T18:55:01.724Z,99773.25
2022-09-10T18:57:31.715Z,99778.47
2022-09-10T19:00:00.491Z,99776.72
2022-09-10T19:02:29.260Z,99777.59
2022-09-10T19:05:17.569Z,99784.63
2022-09-10T19:07:46.664Z,99790.78
2022-09-10T19:10:16.931Z,99789.06
2022-09-10T19:12:45.564Z,99795.19
2022-09-10T19:15:14.076Z,99802.22
2022-09-10T19:17:42.559Z,99810.06
2022-09-10T19:20:11.573Z,99814.44
2022-09-10T19:22:40.159Z,99817.91
2022-09-10T19:25:09.799Z,99817.91
2022-09-10T19:27:39.665Z,99823.13
2022-09-10T19:30:09.903Z,99819.66
2022-09-10T19:32:38.354Z,99824.06
2022-09-10T19:35:07.458Z,99831.91
2022-09-10T19:37:35.953Z,99825.78
2022-09-10T19:40:05.313Z,99834.59
2022-09-10T19:42:33.950Z,99838.09
2022-09-10T19:45:08.215Z,99847.75
2022-09-10T19:47:38.746Z,99846.03
2022-09-10T19:50:08.470Z,99853.91
2022-09-10T19:52:37.211Z,99849.53
2022-09-10T19:55:06.927Z,99845.19
2022-09-10T19:57:35.695Z,99847.78
2022-09-10T20:00:07.424Z,99846.03
2022-09-10T20:02:40.164Z,99838.19
2022-09-10T20:05:10.716Z,99846.03
2022-09-10T20:07:39.816Z,99846.03
2022-09-10T20:10:09.487Z,99858.25
2022-09-10T20:12:38.101Z,99849.53
2022-09-10T20:15:10.112Z,99850.47
2022-09-10T20:17:38.786Z,99854.00
2022-09-10T20:20:08.606Z,99854.84
2022-09-10T20:22:38.814Z,99855.72
2022-09-10T20:25:08.510Z,99860.09
2022-09-10T20:27:37.852Z,99866.22
2022-09-10T20:30:09.797Z,99868.03
2022-09-10T20:32:38.806Z,99863.63
2022-09-10T20:35:10.332Z,99867.22
2022-09-10T20:37:39.150Z,99872.44
2022-09-10T20:40:09.499Z,99867.22
2022-09-10T20:42:39.627Z,99874.19
2022-09-10T20:45:11.247Z,99877.69
2022-09-10T20:47:43.873Z,99869.75
2022-09-10T20:50:13.326Z,99887.28
2022-09-10T20:52:44.347Z,99875.91
2022-09-10T20:55:12.957Z,99882.06
2022-09-10T20:57:41.622Z,99890.72
2022-09-10T21:00:14.541Z,99891.63
2022-09-10T21:02:44.927Z,99886.38
2022-09-10T21:05:14.856Z,99893.34
2022-09-10T21:07:43.532Z,99900.34
2022-09-10T21:10:12.238Z,99909.16
2022-09-10T21:12:41.329Z,99909.97
2022-09-10T21:15:15.602Z,99909.16
2022-09-10T21:17:45.137Z,99906.47
2022-09-10T21:20:14.531Z,99911.69
2022-09-10T21:22:43.313Z,99919.63
2022-09-10T21:25:13.235Z,99910.81
2022-09-10T21:27:42.383Z,99919.56
2022-09-10T21:30:14.360Z,99926.53
2022-09-10T21:32:43.751Z,99926.53
2022-09-10T21:35:12.991Z,99926.50
2022-09-10T21:37:43.075Z,99923.88
2022-09-10T21:40:14.221Z,99925.66
2022-09-10T21:42:43.266Z,99930.00
2022-09-10T21:45:13.495Z,99930.00
2022-09-10T21:47:43.607Z,99931.72
2022-09-10T21:50:13.102Z,99934.34
2022-09-10T21:52:41.980Z,99941.34
2022-09-10T21:55:11.270Z,99932.59
2022-09-10T21:57:40.438Z,99941.34
2022-09-10T22:00:14.756Z,99933.47
2022-09-10T22:02:45.395Z,99942.13
2022-09-10T22:05:14.341Z,99945.63
2022-09-10T22:07:42.831Z,99947.34
2022-09-10T22:10:11.647Z,99945.63
2022-09-10T22:12:40.289Z,99949.09
2022-09-10T22:15:10.656Z,99946.44
2022-09-10T22:17:39.359Z,99950.78
2022-09-10T22:20:10.683Z,99950.78
2022-09-10T22:22:39.418Z,99953.38
2022-09-10T22:25:08.933Z,99948.94
2022-09-10T22:27:38.526Z,99949.84
2022-09-10T22:30:08.435Z,99960.28
2022-09-10T22:32:37.028Z,99958.53
2022-09-10T22:35:06.341Z,99961.13
2022-09-10T22:37:37.207Z,99957.63
2022-09-10T22:40:06.534Z,99958.47
2022-09-10T22:42:35.085Z,99965.47
2022-09-10T22:45:03.568Z,99966.31
2022-09-10T22:47:32.262Z,99968.03
2022-09-10T22:50:00.978Z,99968.03
2022-09-10T22:52:32.881Z,99965.41
2022-09-10T22:55:03.275Z,99967.19
2022-09-10T22:57:31.811Z,99967.19
2022-09-10T23:00:00.314Z,99970.63
2022-09-10T23:02:29.150Z,99971.50
2022-09-10T23:04:57.811Z,99974.09
2022-09-10T23:07:26.314Z,99978.47
2022-09-10T23:09:55.689Z,99974.06
2022-09-10T23:12:25.632Z,99967.97
2022-09-10T23:14:54.437Z,99981.91
2022-09-10T23:17:22.927Z,99983.69
2022-09-10T23:19:51.367Z,99982.81
2022-09-10T23:22:19.934Z,99982.78
2022-09-10T23:24:48.414Z,99984.50
2022-09-10T23:27:17.002Z,99987.13
2022-09-10T23:29:47.656Z,99989.75
2022-09-10T23:32:16.484Z,99987.97
2022-09-10T23:34:45.316Z,99984.47
2022-09-10T23:37:13.760Z,99990.56
2022-09-10T23:39:42.263Z,99997.53
2022-09-10T23:42:11.061Z,99998.41
2022-09-10T23:44:39.548Z,100003.66
2022-09-10T23:47:09.411Z,100000.97
2022-09-10T23:49:38.030Z,100012.34
2022-09-10T23:52:07.221Z,100016.69
2022-09-10T23:54:35.702Z,100014.91
2022-09-10T23:57:04.175Z,100021.03
2022-09-10T23:59:32.850Z,100012.28
